Thursday, May 26, 2016, 4:34 AM EDT

KUNV, State College, University Park Airport

Location: State College, PA, United States Lat: 40.85
Local Time: 4:34 AM EDT ( 8:34 GMT) Lon: -77.85
Time Zone: US/Eastern Elev: 1240 ft

Show me the last for .
Show Decoded

2016-05-26 04:15 METAR KUNV 260815Z AUTO 00000KT 10SM OVC100 16/11 A3013 RMK AO2 T01620109 =
2016-05-26 03:55 METAR KUNV 260755Z AUTO 00000KT 10SM OVC110 16/11 A3013 RMK AO2 T01620106 =
2016-05-26 03:35 METAR KUNV 260735Z AUTO 18003KT 10SM OVC110 17/11 A3012 RMK AO2 T01650105 =
2016-05-26 03:15 METAR KUNV 260715Z AUTO 22003KT 10SM OVC110 17/10 A3012 RMK AO2 T01710103 =
2016-05-26 02:55 METAR KUNV 260655Z AUTO 20003KT 10SM OVC110 16/11 A3012 RMK AO2 T01610105 =
2016-05-26 02:35 METAR KUNV 260635Z AUTO 17003KT 10SM OVC120 16/10 A3012 RMK AO2 T01550104 =
2016-05-26 02:15 METAR KUNV 260615Z AUTO 00000KT 10SM SCT120 17/10 A3012 RMK AO2 T01680096 =
2016-05-26 01:55 METAR KUNV 260555Z AUTO 23003KT 10SM CLR 17/10 A3012 RMK AO2 T01730095 10255
                 20164 =
2016-05-26 01:35 METAR KUNV 260535Z AUTO 22003KT 10SM CLR 17/10 A3012 RMK AO2 T01650098 =
2016-05-26 01:15 METAR KUNV 260515Z AUTO 22004KT 10SM CLR 17/10 A3013 RMK AO2 T01700101 =
2016-05-26 00:55 METAR KUNV 260455Z AUTO 25003KT 10SM CLR 18/10 A3013 RMK AO2 T01820098 =
2016-05-26 00:35 METAR KUNV 260435Z AUTO 00000KT 10SM CLR 18/10 A3013 RMK AO2 T01750100 =
2016-05-26 00:15 METAR KUNV 260415Z AUTO 19003KT 10SM CLR 18/10 A3012 RMK AO2 T01770101 =
2016-05-25 23:55 METAR KUNV 260355Z AUTO 19004KT 10SM CLR 18/10 A3013 RMK AO2 T01810100 =
2016-05-25 23:35 METAR KUNV 260335Z AUTO 20003KT 10SM CLR 20/10 A3013 RMK AO2 T01950099 =
2016-05-25 23:15 METAR KUNV 260315Z AUTO 00000KT 10SM CLR 19/10 A3013 RMK AO2 T01850098 =
2016-05-25 22:55 METAR KUNV 260255Z AUTO 00000KT 10SM CLR 19/10 A3013 RMK AO2 T01870098 =
2016-05-25 22:35 METAR KUNV 260235Z AUTO 00000KT 10SM CLR 19/10 A3013 RMK AO2 T01900101 =
2016-05-25 22:15 METAR KUNV 260215Z AUTO 00000KT 10SM CLR 20/10 A3013 RMK AO2 T01960101 =
2016-05-25 21:55 METAR KUNV 260155Z AUTO 00000KT 10SM CLR 20/10 A3013 RMK AO2 T02030100 =
2016-05-25 20:53 METAR KUNV 260053Z 25005KT 10SM SKC 23/10 A3012 =
2016-05-25 19:53 METAR KUNV 252353Z 25005KT 10SM SKC 25/10 A3011 =
2016-05-25 18:53 METAR KUNV 252253Z 25006KT 10SM SKC 26/10 A3010 =
2016-05-25 17:53 METAR KUNV 252153Z 25007KT 10SM SKC 27/09 A3010 =
2016-05-25 16:53 METAR KUNV 252053Z 26010KT 10SM SKC 27/09 A3011 =
2016-05-25 15:53 METAR KUNV 251953Z 25011KT 10SM SKC 28/10 A3012 =
2016-05-25 14:53 METAR KUNV 251853Z 27010KT 10SM SKC 28/11 A3013 =
2016-05-25 13:53 METAR KUNV 251753Z 27011G16KT 10SM SKC 27/11 A3014 =
2016-05-25 12:53 METAR KUNV 251653Z 24011G14KT 10SM SKC 27/10 A3015 =
2016-05-25 11:53 METAR KUNV 251553Z 29008KT 10SM SKC 26/11 A3016 =
2016-05-25 10:53 METAR KUNV 251453Z 27007KT 10SM SKC 24/12 A3015 =
2016-05-25 09:53 METAR KUNV 251353Z 24005KT 10SM SKC 22/12 A3015 =
2016-05-25 08:53 METAR KUNV 251253Z 00000KT 10SM SKC 19/12 A3016 =
2016-05-25 07:53 METAR KUNV 251153Z 00000KT 10SM SKC 15/10 A3016 =
2016-05-25 06:53 METAR KUNV 251053Z 00000KT 10SM SKC 11/09 A3015 =
2016-05-25 05:53 METAR KUNV 250953Z 00000KT 10SM SKC 12/07 A3012 =
2016-05-25 05:35 METAR KUNV 250935Z AUTO 00000KT 10SM CLR 11/07 A3012 RMK AO2 T01130071 =
2016-05-25 05:15 METAR KUNV 250915Z AUTO 25003KT 10SM CLR 11/08 A3012 RMK AO2 T01110075 =
2016-05-25 04:55 METAR KUNV 250855Z AUTO 24003KT 10SM CLR 12/07 A3011 RMK AO2 T01240067 =
2016-05-25 04:35 METAR KUNV 250835Z AUTO 26004KT 10SM CLR 15/07 A3011 RMK AO2 T01460067 =

Support USWX by starting your Amazon purchase here.